createdAt,value
2019-05-16T00:02:10.131Z,88.38
2019-05-16T00:04:59.233Z,87.99
2019-05-16T00:07:49.585Z,88.54
2019-05-16T00:10:38.490Z,88.95
2019-05-16T00:16:38.027Z,91.02
2019-05-16T00:19:28.758Z,88.68
2019-05-16T00:22:18.271Z,88.69
2019-05-16T00:25:09.373Z,88.49
2019-05-16T00:27:58.798Z,88.32
2019-05-16T00:30:48.882Z,88.13
2019-05-16T00:33:38.068Z,88.34
2019-05-16T00:36:28.360Z,88.74
2019-05-16T00:39:18.771Z,89.87
2019-05-16T00:42:08.844Z,89.37
2019-05-16T00:44:58.595Z,89.59
2019-05-16T00:47:48.972Z,90.48
2019-05-16T00:50:58.699Z,91.26
2019-05-16T00:53:48.296Z,91.91
2019-05-16T01:03:00.575Z,94.65
2019-05-16T01:05:49.393Z,96.11
2019-05-16T01:08:38.645Z,95.66
2019-05-16T01:11:28.781Z,96.84
2019-05-16T01:14:17.774Z,95.83
2019-05-16T01:17:08.573Z,93.80
2019-05-16T01:19:57.833Z,93.77
2019-05-16T01:22:48.995Z,92.92
2019-05-16T01:25:38.871Z,92.93
2019-05-16T01:28:28.863Z,93.70
2019-05-16T01:31:19.090Z,94.34
2019-05-16T01:34:08.273Z,92.21
2019-05-16T01:36:59.006Z,92.60
2019-05-16T01:39:48.404Z,92.71
2019-05-16T01:42:38.538Z,93.04
2019-05-16T01:45:28.817Z,93.23
2019-05-16T01:48:19.170Z,93.90
2019-05-16T01:51:08.232Z,94.11
2019-05-16T01:53:58.004Z,94.36
2019-05-16T01:56:48.098Z,94.54
2019-05-16T01:59:38.215Z,94.62
2019-05-16T02:02:28.961Z,92.81
2019-05-16T02:05:18.754Z,94.04
2019-05-16T02:08:08.845Z,92.08
2019-05-16T02:10:58.862Z,90.21
2019-05-16T02:13:48.474Z,89.59
2019-05-16T02:16:38.500Z,88.94
2019-05-16T02:19:27.984Z,86.76
2019-05-16T02:22:18.035Z,84.09
2019-05-16T02:28:25.931Z,84.67
2019-05-16T02:31:15.305Z,82.02
2019-05-16T02:34:04.946Z,82.19
2019-05-16T02:37:12.036Z,82.49
2019-05-16T02:39:44.406Z,82.73
2019-05-16T02:42:33.235Z,82.94
2019-05-16T02:45:24.486Z,83.64
2019-05-16T02:48:12.683Z,83.33
2019-05-16T02:51:02.078Z,82.59
2019-05-16T02:53:52.274Z,81.32
2019-05-16T02:56:41.913Z,81.10
2019-05-16T02:59:31.663Z,80.67
2019-05-16T03:02:20.799Z,80.19
2019-05-16T03:08:41.189Z,78.79
2019-05-16T03:11:31.462Z,81.16
2019-05-16T03:14:21.428Z,81.56
2019-05-16T03:20:46.249Z,81.74
2019-05-16T03:23:35.106Z,81.37
2019-05-16T03:26:23.989Z,80.40
2019-05-16T03:29:12.846Z,80.74
2019-05-16T03:32:03.108Z,80.62
2019-05-16T03:34:54.792Z,79.29
2019-05-16T03:37:54.960Z,81.81
2019-05-16T03:43:50.752Z,83.37
2019-05-16T03:46:41.336Z,82.55
2019-05-16T03:49:31.342Z,82.68
2019-05-16T03:52:20.740Z,82.53
2019-05-16T03:55:11.534Z,82.73
2019-05-16T03:58:01.649Z,82.38
2019-05-16T04:01:12.703Z,83.62
2019-05-16T04:03:54.162Z,82.28
2019-05-16T04:06:42.960Z,81.55
2019-05-16T04:09:31.803Z,82.64
2019-05-16T04:12:21.356Z,82.64
2019-05-16T04:15:11.818Z,82.08
2019-05-16T04:18:01.827Z,83.15
2019-05-16T04:20:52.427Z,82.97
2019-05-16T04:23:41.998Z,82.83
2019-05-16T04:26:35.781Z,82.74
2019-05-16T04:29:22.397Z,83.46
2019-05-16T04:32:11.232Z,82.63
2019-05-16T04:35:02.535Z,84.16
2019-05-16T04:37:51.454Z,82.62
2019-05-16T04:40:42.400Z,81.94
2019-05-16T04:43:31.927Z,81.31
2019-05-16T04:46:21.641Z,80.02
2019-05-16T04:49:11.573Z,79.21
2019-05-16T04:52:01.936Z,78.44
2019-05-16T04:54:51.318Z,78.37
2019-05-16T04:57:42.453Z,78.63
2019-05-16T05:00:32.116Z,78.08
2019-05-16T05:06:31.275Z,79.04
2019-05-16T05:09:20.964Z,77.87
2019-05-16T05:12:11.406Z,76.31
2019-05-16T05:15:01.224Z,71.51
2019-05-16T05:17:51.293Z,70.70
2019-05-16T05:20:41.064Z,69.83
2019-05-16T05:23:30.693Z,69.34
2019-05-16T05:26:19.975Z,69.84
2019-05-16T05:29:10.380Z,68.08
2019-05-16T05:32:04.198Z,67.95
2019-05-16T05:34:51.324Z,68.84
2019-05-16T05:37:41.060Z,67.62
2019-05-16T05:40:30.787Z,69.69
2019-05-16T05:43:21.539Z,71.87
2019-05-16T05:46:11.154Z,68.80
2019-05-16T05:49:00.917Z,67.82
2019-05-16T05:51:50.122Z,69.68
2019-05-16T05:54:40.841Z,68.08
2019-05-16T05:57:30.892Z,66.16
2019-05-16T06:03:34.353Z,62.80
2019-05-16T06:06:23.179Z,62.63
2019-05-16T06:09:25.317Z,61.36
2019-05-16T06:18:32.013Z,62.17
2019-05-16T06:21:20.839Z,61.11
2019-05-16T06:24:10.792Z,60.24
2019-05-16T06:27:00.962Z,61.28
2019-05-16T06:29:50.929Z,59.24
2019-05-16T06:36:10.819Z,58.68
2019-05-16T06:39:00.237Z,59.95
2019-05-16T06:41:50.936Z,61.66
2019-05-16T06:44:40.251Z,58.68
2019-05-16T06:47:30.619Z,59.81
2019-05-16T06:50:40.447Z,60.52
2019-05-16T06:53:29.911Z,66.21
2019-05-16T06:56:20.204Z,63.67
2019-05-16T06:59:10.564Z,64.25
2019-05-16T07:02:00.466Z,61.17
2019-05-16T07:04:42.571Z,59.86
2019-05-16T07:07:31.422Z,54.08
2019-05-16T07:10:20.569Z,56.61
2019-05-16T07:13:10.361Z,56.86
2019-05-16T07:16:00.697Z,56.03
2019-05-16T07:18:50.817Z,53.38
2019-05-16T07:21:41.177Z,53.39
2019-05-16T07:24:30.517Z,53.33
2019-05-16T07:27:21.913Z,51.89
2019-05-16T07:33:26.671Z,50.84
2019-05-16T07:36:16.008Z,49.96
2019-05-16T07:39:06.291Z,50.27
2019-05-16T07:41:55.143Z,50.19
2019-05-16T07:44:44.042Z,51.56
2019-05-16T07:47:32.896Z,50.64
2019-05-16T07:50:21.735Z,50.85
2019-05-16T07:53:10.774Z,50.70
2019-05-16T07:56:00.164Z,52.46
2019-05-16T07:58:50.829Z,46.97
2019-05-16T08:01:43.382Z,49.47
2019-05-16T08:04:31.476Z,49.91
2019-05-16T08:07:13.757Z,48.96
2019-05-16T08:09:43.324Z,48.97
2019-05-16T08:12:33.041Z,50.07
2019-05-16T08:15:23.198Z,49.46
2019-05-16T08:18:12.066Z,49.18
2019-05-16T08:21:01.570Z,48.21
2019-05-16T08:23:51.469Z,47.13
2019-05-16T08:26:43.041Z,46.89
2019-05-16T08:29:31.724Z,47.20
2019-05-16T08:35:12.118Z,45.93
2019-05-16T08:38:01.279Z,45.76
2019-05-16T08:41:06.146Z,45.41
2019-05-16T08:43:41.542Z,46.04
2019-05-16T08:46:32.410Z,46.87
2019-05-16T08:49:22.285Z,47.15
2019-05-16T08:52:12.401Z,46.62
2019-05-16T08:55:03.531Z,49.19
2019-05-16T08:57:52.925Z,49.44
2019-05-16T09:00:42.440Z,50.84
2019-05-16T09:03:32.268Z,53.27
2019-05-16T09:06:15.219Z,50.91
2019-05-16T09:10:41.403Z,46.15
2019-05-16T09:13:48.177Z,51.52
2019-05-16T09:16:37.276Z,51.04
2019-05-16T09:19:27.799Z,53.18
2019-05-16T09:22:18.219Z,53.09
2019-05-16T09:28:22.598Z,48.54
2019-05-16T09:31:11.487Z,45.14
2019-05-16T09:34:00.352Z,46.76
2019-05-16T09:36:49.237Z,46.32
2019-05-16T09:39:18.886Z,46.23
2019-05-16T09:42:08.312Z,43.15
2019-05-16T09:44:58.162Z,44.19
2019-05-16T09:47:48.497Z,45.49
2019-05-16T09:50:37.976Z,45.55
2019-05-16T09:53:28.202Z,46.97
2019-05-16T09:56:17.065Z,47.25
2019-05-16T09:59:06.915Z,47.13
2019-05-16T10:01:57.171Z,48.56
2019-05-16T10:04:47.471Z,46.04
2019-05-16T10:07:30.933Z,43.40
2019-05-16T10:10:00.434Z,41.65
2019-05-16T10:12:49.263Z,40.85
2019-05-16T10:15:38.159Z,37.81
2019-05-16T10:18:27.736Z,40.53
2019-05-16T10:21:20.490Z,40.39
2019-05-16T10:24:08.241Z,41.18
2019-05-16T10:26:57.270Z,42.33
2019-05-16T10:29:48.489Z,39.72
2019-05-16T10:32:39.731Z,35.46
2019-05-16T10:35:30.160Z,39.50
2019-05-16T10:38:19.534Z,38.87
2019-05-16T10:41:08.356Z,38.90
2019-05-16T10:43:57.240Z,38.21
2019-05-16T10:46:47.974Z,37.98
2019-05-16T10:49:38.773Z,35.64
2019-05-16T10:52:27.281Z,36.92
2019-05-16T10:55:17.738Z,40.38
2019-05-16T10:58:07.533Z,36.00
2019-05-16T11:01:15.614Z,37.98
2019-05-16T11:03:49.190Z,39.57
2019-05-16T11:06:31.732Z,37.99
2019-05-16T11:09:20.577Z,37.96
2019-05-16T11:12:09.433Z,36.08
2019-05-16T11:14:58.300Z,32.80
2019-05-16T11:17:47.112Z,35.69
2019-05-16T11:20:37.402Z,33.45
2019-05-16T11:23:30.855Z,32.33
2019-05-16T11:26:17.077Z,33.18
2019-05-16T11:29:07.446Z,32.73
2019-05-16T11:31:57.392Z,36.64
2019-05-16T11:34:47.952Z,33.86
2019-05-16T11:37:37.872Z,33.42
2019-05-16T11:40:30.198Z,34.17
2019-05-16T11:43:21.734Z,33.10
2019-05-16T11:46:09.410Z,33.42
2019-05-16T11:48:58.264Z,33.85
2019-05-16T11:51:47.428Z,36.57
2019-05-16T11:54:37.645Z,35.62
2019-05-16T11:57:26.474Z,34.88
2019-05-16T12:00:37.241Z,34.45
2019-05-16T12:03:28.237Z,37.71
2019-05-16T12:06:11.352Z,39.86
2019-05-16T12:09:00.173Z,40.24
2019-05-16T12:11:49.031Z,38.44
2019-05-16T12:14:37.888Z,36.17
2019-05-16T12:17:27.991Z,35.84
2019-05-16T12:20:17.523Z,37.28
2019-05-16T12:23:07.971Z,38.89
2019-05-16T12:25:59.948Z,36.85
2019-05-16T12:28:47.557Z,39.07
2019-05-16T12:31:37.352Z,37.17
2019-05-16T12:34:27.087Z,36.30
2019-05-16T12:37:15.915Z,33.45
2019-05-16T12:40:26.837Z,36.60
2019-05-16T12:43:17.967Z,38.42
2019-05-16T12:46:07.527Z,34.81
2019-05-16T12:48:57.702Z,36.57
2019-05-16T12:51:47.920Z,38.99
2019-05-16T12:54:37.088Z,42.49
2019-05-16T12:57:31.125Z,39.98
2019-05-16T13:03:33.033Z,38.79
2019-05-16T13:06:17.104Z,40.03
2019-05-16T13:09:26.537Z,40.03
2019-05-16T13:12:17.496Z,41.35
2019-05-16T13:18:02.309Z,42.02
2019-05-16T13:20:51.214Z,44.59
2019-05-16T13:23:40.026Z,44.71
2019-05-16T13:26:28.866Z,45.00
2019-05-16T13:29:18.230Z,44.30
2019-05-16T13:32:08.333Z,40.11
2019-05-16T13:34:58.961Z,40.39
2019-05-16T13:37:48.008Z,38.31
2019-05-16T13:40:36.882Z,39.58
2019-05-16T13:43:26.995Z,41.34
2019-05-16T13:46:17.223Z,39.93
2019-05-16T13:49:07.366Z,37.44
2019-05-16T13:51:57.554Z,36.75
2019-05-16T13:54:46.413Z,38.56
2019-05-16T13:57:37.384Z,38.72
2019-05-16T14:00:27.901Z,41.96
2019-05-16T14:03:17.922Z,41.00
2019-05-16T14:06:07.441Z,44.05
2019-05-16T14:08:56.787Z,45.59
2019-05-16T14:11:46.979Z,44.62
2019-05-16T14:14:41.971Z,46.79
2019-05-16T14:17:27.534Z,46.16
2019-05-16T14:23:32.360Z,47.32
2019-05-16T14:26:21.200Z,46.23
2019-05-16T14:29:10.032Z,46.96
2019-05-16T14:31:58.856Z,49.14
2019-05-16T14:34:51.321Z,48.07
2019-05-16T14:37:38.457Z,49.25
2019-05-16T14:40:27.790Z,48.75
2019-05-16T14:43:17.795Z,48.93
2019-05-16T14:46:09.375Z,48.70
2019-05-16T14:48:57.434Z,47.32
2019-05-16T14:51:47.736Z,47.62
2019-05-16T14:54:37.707Z,48.73
2019-05-16T14:57:27.543Z,49.44
2019-05-16T15:03:31.740Z,53.01
2019-05-16T15:06:20.593Z,53.08
2019-05-16T15:09:03.714Z,54.23
2019-05-16T15:11:52.568Z,54.25
2019-05-16T15:14:41.390Z,55.04
2019-05-16T15:17:30.011Z,55.79
2019-05-16T15:20:19.035Z,55.87
2019-05-16T15:23:07.965Z,56.68
2019-05-16T15:25:56.811Z,57.22
2019-05-16T15:28:47.959Z,57.94
2019-05-16T15:31:39.435Z,57.48
2019-05-16T15:34:29.942Z,56.63
2019-05-16T15:37:17.560Z,58.22
2019-05-16T15:40:27.295Z,57.12
2019-05-16T15:43:17.997Z,58.01
2019-05-16T15:49:37.578Z,57.81
2019-05-16T15:55:54.225Z,59.03
2019-05-16T15:58:43.091Z,60.01
2019-05-16T16:01:31.942Z,58.95
2019-05-16T16:04:22.754Z,58.78
2019-05-16T16:07:07.402Z,59.74
2019-05-16T16:09:57.524Z,60.16
2019-05-16T16:12:47.749Z,60.59
2019-05-16T16:18:51.588Z,63.46
2019-05-16T16:21:40.498Z,62.18
2019-05-16T16:24:29.409Z,62.37
2019-05-16T16:27:18.237Z,62.44
2019-05-16T16:33:27.316Z,60.94
2019-05-16T16:36:13.489Z,60.41
2019-05-16T16:39:02.360Z,60.98
2019-05-16T16:41:51.212Z,60.82
2019-05-16T16:44:40.069Z,60.99
2019-05-16T16:47:29.024Z,62.59
2019-05-16T16:50:18.013Z,61.57
2019-05-16T16:53:07.268Z,62.53
2019-05-16T16:55:57.501Z,62.44
2019-05-16T16:58:46.713Z,62.34
2019-05-16T17:01:37.523Z,62.77
2019-05-16T17:04:27.451Z,62.18
2019-05-16T17:07:09.093Z,63.23
2019-05-16T17:09:50.616Z,62.62
2019-05-16T17:12:42.328Z,60.69
2019-05-16T17:15:30.222Z,61.08
2019-05-16T17:18:19.056Z,60.42
2019-05-16T17:21:08.228Z,60.71
2019-05-16T17:24:01.022Z,59.69
2019-05-16T17:26:49.932Z,60.27
2019-05-16T17:29:38.781Z,60.75
2019-05-16T17:32:27.930Z,61.16
2019-05-16T17:38:31.762Z,60.64
2019-05-16T17:41:20.421Z,62.68
2019-05-16T17:44:09.320Z,62.60
2019-05-16T17:46:58.190Z,60.86
2019-05-16T17:49:47.328Z,61.76
2019-05-16T17:52:36.896Z,61.47
2019-05-16T17:55:27.054Z,62.58
2019-05-16T17:58:16.500Z,63.81
2019-05-16T18:04:17.234Z,63.14
2019-05-16T18:07:07.345Z,63.23
2019-05-16T18:09:50.129Z,61.90
2019-05-16T18:12:38.977Z,62.67
2019-05-16T18:15:27.917Z,62.76
2019-05-16T18:18:17.666Z,62.34
2019-05-16T18:21:07.485Z,62.32
2019-05-16T18:23:56.293Z,62.28
2019-05-16T18:26:26.844Z,63.94
2019-05-16T18:29:16.488Z,63.01
2019-05-16T18:32:06.947Z,63.10
2019-05-16T18:34:56.410Z,63.76
2019-05-16T18:37:46.609Z,63.74
2019-05-16T18:40:36.778Z,63.51
2019-05-16T18:43:27.089Z,64.64
2019-05-16T18:46:16.670Z,65.91
2019-05-16T18:49:07.248Z,66.70
2019-05-16T18:51:57.040Z,65.81
2019-05-16T18:54:46.880Z,66.85
2019-05-16T18:57:37.720Z,67.89
2019-05-16T19:00:26.794Z,68.47
2019-05-16T19:03:17.205Z,69.53
2019-05-16T19:06:07.755Z,71.00
2019-05-16T19:08:50.021Z,72.38
2019-05-16T19:11:38.894Z,73.63
2019-05-16T19:14:27.798Z,74.37
2019-05-16T19:17:22.197Z,74.20
2019-05-16T19:23:22.403Z,74.79
2019-05-16T19:26:11.346Z,75.87
2019-05-16T19:29:00.259Z,74.53
2019-05-16T19:31:50.614Z,74.27
2019-05-16T19:34:39.683Z,74.56
2019-05-16T19:37:28.526Z,75.39
2019-05-16T19:40:40.508Z,74.94
2019-05-16T19:43:28.849Z,74.64
2019-05-16T19:46:17.767Z,75.00
2019-05-16T19:49:06.642Z,74.97
2019-05-16T19:51:56.598Z,74.92
2019-05-16T19:54:47.112Z,74.35
2019-05-16T19:57:37.386Z,75.04
2019-05-16T20:00:27.359Z,75.32
2019-05-16T20:03:16.728Z,75.34
2019-05-16T20:06:07.567Z,76.14
2019-05-16T20:08:50.044Z,77.45
2019-05-16T20:11:38.923Z,79.22
2019-05-16T20:14:27.869Z,80.62
2019-05-16T20:17:19.210Z,85.19
2019-05-16T20:23:22.630Z,99.00
2019-05-16T20:26:11.551Z,100.00
2019-05-16T20:29:00.385Z,100.00
2019-05-16T20:31:49.301Z,100.00
2019-05-16T20:34:38.128Z,100.00
2019-05-16T20:37:26.990Z,100.00
2019-05-16T20:40:17.290Z,100.00
2019-05-16T20:43:07.732Z,100.00
2019-05-16T20:45:58.839Z,100.00
2019-05-16T20:48:47.766Z,100.00
2019-05-16T20:51:37.599Z,100.00
2019-05-16T20:54:27.182Z,100.00
2019-05-16T20:57:17.261Z,100.00
2019-05-16T21:00:26.831Z,100.00
2019-05-16T21:03:16.740Z,100.00
2019-05-16T21:06:08.464Z,100.00
2019-05-16T21:08:57.510Z,100.00
2019-05-16T21:11:49.952Z,100.00
2019-05-16T21:14:37.480Z,100.00
2019-05-16T21:17:33.586Z,100.00
2019-05-16T21:20:22.491Z,100.00
2019-05-16T21:23:11.339Z,100.00
2019-05-16T21:26:00.207Z,100.00
2019-05-16T21:28:49.040Z,100.00
2019-05-16T21:31:37.872Z,100.00
2019-05-16T21:34:27.268Z,100.00
2019-05-16T21:37:20.199Z,100.00
2019-05-16T21:40:08.306Z,100.00
2019-05-16T21:42:58.832Z,100.00
2019-05-16T21:45:47.673Z,100.00
2019-05-16T21:48:36.994Z,100.00
2019-05-16T21:51:27.094Z,100.00
2019-05-16T21:54:15.962Z,100.00
2019-05-16T21:57:04.843Z,100.00
2019-05-16T21:59:53.770Z,100.00
2019-05-16T22:02:42.585Z,100.00
2019-05-16T22:05:31.493Z,100.00
2019-05-16T22:08:20.419Z,100.00
2019-05-16T22:11:02.707Z,100.00
2019-05-16T22:13:51.525Z,100.00
2019-05-16T22:19:36.440Z,100.00
2019-05-16T22:22:27.577Z,100.00
2019-05-16T22:25:16.729Z,100.00
2019-05-16T22:28:07.352Z,100.00
2019-05-16T22:30:58.466Z,100.00
2019-05-16T22:33:48.288Z,100.00
2019-05-16T22:36:37.277Z,100.00
2019-05-16T22:42:37.503Z,100.00
2019-05-16T22:45:27.121Z,100.00
2019-05-16T22:48:17.399Z,100.00
2019-05-16T22:51:07.443Z,100.00
2019-05-16T22:53:58.499Z,100.00
2019-05-16T22:56:46.927Z,100.00
2019-05-16T22:59:35.776Z,100.00
2019-05-16T23:02:24.602Z,100.00
2019-05-16T23:05:13.464Z,100.00
2019-05-16T23:08:06.098Z,100.00
2019-05-16T23:10:46.275Z,100.00
2019-05-16T23:13:35.104Z,100.00
2019-05-16T23:16:26.520Z,100.00
2019-05-16T23:19:14.523Z,100.00
2019-05-16T23:22:03.445Z,100.00
2019-05-16T23:25:11.331Z,100.00
2019-05-16T23:28:00.268Z,100.00
2019-05-16T23:30:49.119Z,100.00
2019-05-16T23:33:37.964Z,100.00
2019-05-16T23:36:26.813Z,100.00
2019-05-16T23:39:15.640Z,100.00
2019-05-16T23:42:06.362Z,100.00
2019-05-16T23:44:56.735Z,100.00
2019-05-16T23:47:47.131Z,100.00
2019-05-16T23:50:36.718Z,100.00
2019-05-16T23:53:26.901Z,100.00
2019-05-16T23:56:16.688Z,100.00
2019-05-16T23:59:06.716Z,100.00
